createdAt,value
2019-04-28T00:00:21.488Z,43.30
2019-04-28T00:02:47.552Z,43.30
2019-04-28T00:05:13.601Z,43.30
2019-04-28T00:07:41.115Z,43.20
2019-04-28T00:10:07.438Z,43.10
2019-04-28T00:12:33.517Z,43.20
2019-04-28T00:14:59.466Z,43.10
2019-04-28T00:17:25.406Z,43.10
2019-04-28T00:19:52.374Z,43.20
2019-04-28T00:22:20.939Z,43.20
2019-04-28T00:25:06.688Z,43.80
2019-04-28T00:27:32.631Z,43.20
2019-04-28T00:29:58.600Z,43.20
2019-04-28T00:32:26.035Z,43.20
2019-04-28T00:34:52.021Z,43.20
2019-04-28T00:37:22.586Z,43.10
2019-04-28T00:39:48.526Z,43.10
2019-04-28T00:42:15.931Z,43.20
2019-04-28T00:44:43.347Z,43.20
2019-04-28T00:47:11.078Z,43.00
2019-04-28T00:49:45.821Z,43.10
2019-04-28T00:52:11.815Z,43.10
2019-04-28T00:54:39.087Z,43.10
2019-04-28T00:57:05.017Z,43.10
2019-04-28T00:59:31.604Z,43.10
2019-04-28T01:02:02.132Z,43.20
2019-04-28T01:04:28.189Z,43.10
2019-04-28T01:06:54.168Z,43.00
2019-04-28T01:09:21.795Z,43.00
2019-04-28T01:11:47.973Z,43.00
2019-04-28T01:14:14.030Z,43.00
2019-04-28T01:16:44.775Z,43.10
2019-04-28T01:19:15.233Z,43.00
2019-04-28T01:22:00.374Z,43.00
2019-04-28T01:24:26.500Z,42.90
2019-04-28T01:26:54.361Z,43.00
2019-04-28T01:29:20.333Z,42.90
2019-04-28T01:31:51.091Z,43.00
2019-04-28T01:34:20.379Z,43.00
2019-04-28T01:36:46.584Z,43.00
2019-04-28T01:39:12.630Z,43.00
2019-04-28T01:41:39.712Z,43.00
2019-04-28T01:44:05.925Z,43.00
2019-04-28T01:46:31.869Z,42.90
2019-04-28T01:48:59.782Z,43.00
2019-04-28T01:51:25.676Z,42.90
2019-04-28T01:53:51.624Z,42.90
2019-04-28T01:56:17.661Z,42.90
2019-04-28T01:58:43.707Z,43.00
2019-04-28T02:01:10.647Z,42.90
2019-04-28T02:03:36.698Z,42.90
2019-04-28T02:06:02.633Z,42.90
2019-04-28T02:08:30.214Z,42.90
2019-04-28T02:10:56.361Z,42.90
2019-04-28T02:13:22.332Z,42.90
2019-04-28T02:15:50.007Z,42.90
2019-04-28T02:18:16.119Z,42.90
2019-04-28T02:20:43.988Z,42.90
2019-04-28T02:23:14.653Z,42.90
2019-04-28T02:25:40.682Z,42.80
2019-04-28T02:28:06.638Z,42.80
2019-04-28T02:30:45.299Z,42.90
2019-04-28T02:33:01.603Z,42.80
2019-04-28T02:35:27.900Z,42.80
2019-04-28T02:37:53.846Z,42.80
2019-04-28T02:40:20.668Z,42.80
2019-04-28T02:42:46.968Z,42.80
2019-04-28T02:45:13.023Z,42.90
2019-04-28T02:47:41.852Z,42.80
2019-04-28T02:50:11.177Z,42.70
2019-04-28T02:52:41.225Z,42.80
2019-04-28T02:55:06.427Z,42.80
2019-04-28T02:57:32.364Z,42.80
2019-04-28T03:00:00.523Z,43.40
2019-04-28T03:02:26.219Z,42.80
2019-04-28T03:04:52.270Z,42.70
2019-04-28T03:07:21.170Z,42.80
2019-04-28T03:09:46.171Z,42.60
2019-04-28T03:12:12.278Z,42.60
2019-04-28T03:14:43.533Z,42.80
2019-04-28T03:17:06.094Z,42.80
2019-04-28T03:19:34.118Z,42.80
2019-04-28T03:22:01.321Z,42.80
2019-04-28T03:24:27.805Z,42.60
2019-04-28T03:27:03.652Z,42.70
2019-04-28T03:29:31.378Z,42.70
2019-04-28T03:32:22.872Z,42.80
2019-04-28T03:34:44.521Z,42.70
2019-04-28T03:37:11.422Z,42.60
2019-04-28T03:39:37.494Z,42.80
2019-04-28T03:42:03.524Z,42.70
2019-04-28T03:44:30.930Z,42.70
2019-04-28T03:46:57.347Z,42.70
2019-04-28T03:49:33.366Z,42.60
2019-04-28T03:52:00.423Z,42.70
2019-04-28T03:54:26.496Z,43.30
2019-04-28T03:56:53.698Z,42.70
2019-04-28T03:59:21.238Z,42.70
2019-04-28T04:01:56.593Z,42.70
2019-04-28T04:04:15.124Z,42.70
2019-04-28T04:06:41.069Z,42.80
2019-04-28T04:09:07.027Z,42.80
2019-04-28T04:11:37.505Z,42.80
2019-04-28T04:14:07.880Z,42.90
2019-04-28T04:16:40.538Z,42.90
2019-04-28T04:19:13.825Z,42.70
2019-04-28T04:21:40.759Z,42.70
2019-04-28T04:24:06.917Z,42.70
2019-04-28T04:26:33.589Z,42.70
2019-04-28T04:29:01.007Z,42.70
2019-04-28T04:31:27.159Z,42.80
2019-04-28T04:33:53.128Z,42.80
2019-04-28T04:36:21.091Z,43.30
2019-04-28T04:38:46.939Z,42.70
2019-04-28T04:41:12.917Z,42.70
2019-04-28T04:43:41.221Z,42.80
2019-04-28T04:46:14.663Z,42.70
2019-04-28T04:48:40.889Z,42.80
2019-04-28T04:51:06.882Z,42.70
2019-04-28T04:53:32.854Z,42.70
2019-04-28T04:56:00.332Z,42.80
2019-04-28T04:58:26.429Z,42.80
2019-04-28T05:00:57.320Z,42.70
2019-04-28T05:03:25.288Z,42.80
2019-04-28T05:05:51.339Z,42.80
2019-04-28T05:08:17.268Z,42.90
2019-04-28T05:10:43.224Z,42.90
2019-04-28T05:13:10.231Z,42.80
2019-04-28T05:15:36.320Z,42.80
2019-04-28T05:18:02.271Z,42.80
2019-04-28T05:20:30.132Z,42.80
2019-04-28T05:23:06.964Z,42.80
2019-04-28T05:25:39.463Z,42.70
2019-04-28T05:28:05.469Z,42.70
2019-04-28T05:30:34.830Z,42.70
2019-04-28T05:33:00.365Z,42.80
2019-04-28T05:35:26.415Z,42.80
2019-04-28T05:37:52.380Z,42.90
2019-04-28T05:40:20.455Z,42.80
2019-04-28T05:42:56.937Z,42.70
2019-04-28T05:45:22.878Z,42.70
2019-04-28T05:47:50.180Z,42.70
2019-04-28T05:50:19.658Z,42.60
2019-04-28T05:52:56.455Z,42.80
2019-04-28T05:55:30.538Z,42.80
2019-04-28T05:58:04.533Z,42.80
2019-04-28T06:00:32.398Z,42.80
2019-04-28T06:03:03.154Z,42.70
2019-04-28T06:05:30.333Z,42.70
2019-04-28T06:08:01.505Z,42.60
2019-04-28T06:10:27.507Z,42.60
2019-04-28T06:12:54.147Z,42.70
2019-04-28T06:15:20.496Z,42.60
2019-04-28T06:17:46.507Z,42.50
2019-04-28T06:20:12.464Z,43.00
2019-04-28T06:22:38.436Z,42.30
2019-04-28T06:25:04.547Z,42.20
2019-04-28T06:27:32.632Z,42.10
2019-04-28T06:29:58.452Z,42.00
2019-04-28T06:32:24.421Z,42.10
2019-04-28T06:34:50.369Z,42.10
2019-04-28T06:37:16.321Z,42.10
2019-04-28T06:39:42.400Z,42.10
2019-04-28T06:42:08.591Z,42.80
2019-04-28T06:44:34.633Z,42.10
2019-04-28T06:47:00.582Z,42.10
2019-04-28T06:49:26.539Z,42.20
2019-04-28T06:51:52.587Z,42.10
2019-04-28T06:54:18.670Z,42.10
2019-04-28T06:56:44.627Z,42.10
2019-04-28T06:59:10.584Z,42.00
2019-04-28T07:01:36.539Z,42.00
2019-04-28T07:04:02.501Z,42.10
2019-04-28T07:06:28.461Z,42.20
2019-04-28T07:08:54.443Z,42.20
2019-04-28T07:11:20.387Z,42.30
2019-04-28T07:13:46.332Z,42.50
2019-04-28T07:16:13.142Z,42.60
2019-04-28T07:18:39.090Z,42.60
2019-04-28T07:21:06.944Z,42.90
2019-04-28T07:23:34.748Z,43.10
2019-04-28T07:26:00.820Z,43.10
2019-04-28T07:28:26.769Z,43.20
2019-04-28T07:30:52.742Z,43.30
2019-04-28T07:33:18.702Z,43.40
2019-04-28T07:35:44.660Z,43.30
2019-04-28T07:38:10.603Z,43.30
2019-04-28T07:40:36.542Z,43.30
2019-04-28T07:43:02.512Z,43.30
2019-04-28T07:45:28.556Z,43.20
2019-04-28T07:47:54.506Z,43.20
2019-04-28T07:50:20.556Z,43.20
2019-04-28T07:52:48.393Z,43.20
2019-04-28T07:55:14.360Z,43.20
2019-04-28T07:57:40.680Z,43.20
2019-04-28T08:00:06.870Z,43.20
2019-04-28T08:02:32.885Z,43.20
2019-04-28T08:04:58.938Z,43.30
2019-04-28T08:07:24.976Z,43.20
2019-04-28T08:09:50.930Z,43.10
2019-04-28T08:12:18.775Z,43.30
2019-04-28T08:14:44.739Z,43.10
2019-04-28T08:17:10.708Z,43.10
2019-04-28T08:19:36.662Z,43.10
2019-04-28T08:22:02.636Z,43.00
2019-04-28T08:24:29.764Z,43.10
2019-04-28T08:26:55.820Z,43.00
2019-04-28T08:29:21.775Z,43.10
2019-04-28T08:31:49.675Z,43.10
2019-04-28T08:34:17.538Z,43.10
2019-04-28T08:36:43.532Z,43.20
2019-04-28T08:39:09.476Z,43.10
2019-04-28T08:41:35.431Z,43.10
2019-04-28T08:44:01.412Z,43.20
2019-04-28T08:46:27.365Z,44.10
2019-04-28T08:48:53.335Z,44.10
2019-04-28T08:51:19.365Z,43.60
2019-04-28T08:53:45.318Z,42.80
2019-04-28T08:56:11.271Z,42.00
2019-04-28T08:58:37.260Z,41.40
2019-04-28T09:01:03.332Z,40.70
2019-04-28T09:03:29.370Z,40.00
2019-04-28T09:05:55.333Z,40.20
2019-04-28T09:08:21.277Z,40.30
2019-04-28T09:10:47.252Z,40.20
2019-04-28T09:13:13.290Z,40.40
2019-04-28T09:15:39.238Z,40.10
2019-04-28T09:18:05.191Z,40.40
2019-04-28T09:20:31.144Z,40.50
2019-04-28T09:22:57.091Z,40.30
2019-04-28T09:25:23.047Z,40.40
2019-04-28T09:27:48.999Z,40.50
2019-04-28T09:30:15.054Z,40.50
2019-04-28T09:32:41.002Z,40.70
2019-04-28T09:35:07.042Z,40.80
2019-04-28T09:37:32.989Z,40.90
2019-04-28T09:40:03.606Z,40.90
2019-04-28T09:42:32.600Z,41.00
2019-04-28T09:45:01.347Z,41.20
2019-04-28T09:47:27.595Z,41.30
2019-04-28T09:49:53.541Z,41.40
2019-04-28T09:52:19.505Z,41.40
2019-04-28T09:54:45.586Z,41.50
2019-04-28T09:57:11.642Z,41.60
2019-04-28T09:59:37.669Z,41.70
2019-04-28T10:02:03.640Z,41.80
2019-04-28T10:04:41.033Z,42.10
2019-04-28T10:06:57.454Z,42.30
2019-04-28T10:09:23.397Z,42.30
2019-04-28T10:11:49.338Z,42.30
2019-04-28T10:14:15.305Z,42.30
2019-04-28T10:16:41.268Z,42.30
2019-04-28T10:19:07.208Z,42.40
2019-04-28T10:21:33.157Z,42.40
2019-04-28T10:23:59.122Z,42.40
2019-04-28T10:26:25.058Z,42.20
2019-04-28T10:28:51.023Z,42.30
2019-04-28T10:31:16.989Z,42.30
2019-04-28T10:33:44.829Z,42.60
2019-04-28T10:36:10.785Z,42.40
2019-04-28T10:38:38.630Z,42.30
2019-04-28T10:41:06.477Z,42.30
2019-04-28T10:43:32.442Z,42.70
2019-04-28T10:45:58.389Z,42.80
2019-04-28T10:48:24.477Z,42.90
2019-04-28T10:50:50.506Z,43.20
2019-04-28T10:53:16.486Z,43.20
2019-04-28T10:55:42.524Z,43.30
2019-04-28T10:58:08.490Z,43.30
2019-04-28T11:00:36.149Z,43.20
2019-04-28T11:03:02.100Z,43.50
2019-04-28T11:05:38.965Z,43.40
2019-04-28T11:08:09.382Z,43.50
2019-04-28T11:10:35.446Z,44.00
2019-04-28T11:13:01.421Z,43.90
2019-04-28T11:15:29.262Z,43.90
2019-04-28T11:17:55.232Z,44.00
2019-04-28T11:20:21.479Z,44.00
2019-04-28T11:22:47.467Z,44.00
2019-04-28T11:25:13.437Z,44.30
2019-04-28T11:27:39.506Z,44.20
2019-04-28T11:30:05.469Z,44.40
2019-04-28T11:32:31.451Z,44.80
2019-04-28T11:35:20.942Z,44.80
2019-04-28T11:37:39.026Z,44.90
2019-04-28T11:40:04.961Z,45.60
2019-04-28T11:42:30.937Z,45.20
2019-04-28T11:44:56.904Z,45.20
2019-04-28T11:47:23.167Z,45.40
2019-04-28T11:49:49.111Z,45.50
2019-04-28T11:52:15.391Z,45.60
2019-04-28T11:54:42.646Z,45.40
2019-04-28T11:57:08.578Z,45.20
2019-04-28T11:59:34.529Z,45.10
2019-04-28T12:02:00.585Z,45.20
2019-04-28T12:04:26.649Z,45.10
2019-04-28T12:06:52.612Z,45.10
2019-04-28T12:09:20.507Z,45.00
2019-04-28T12:11:48.358Z,44.90
2019-04-28T12:14:16.235Z,45.00
2019-04-28T12:16:46.676Z,45.10
2019-04-28T12:19:14.655Z,45.10
2019-04-28T12:21:40.689Z,45.00
2019-04-28T12:24:06.664Z,44.90
2019-04-28T12:26:32.602Z,44.90
2019-04-28T12:29:00.838Z,44.70
2019-04-28T12:31:26.406Z,44.70
2019-04-28T12:33:52.373Z,44.60
2019-04-28T12:36:18.310Z,44.50
2019-04-28T12:38:44.271Z,44.40
2019-04-28T12:41:10.247Z,44.40
2019-04-28T12:43:36.294Z,44.30
2019-04-28T12:46:02.257Z,44.30
2019-04-28T12:48:28.312Z,44.20
2019-04-28T12:50:54.283Z,44.20
2019-04-28T12:53:20.748Z,44.10
2019-04-28T12:55:46.804Z,44.10
2019-04-28T12:58:12.851Z,44.00
2019-04-28T13:00:46.404Z,44.00
2019-04-28T13:03:16.816Z,43.90
2019-04-28T13:05:44.803Z,43.80
2019-04-28T13:08:10.765Z,43.80
2019-04-28T13:10:36.734Z,43.70
2019-04-28T13:13:02.788Z,43.70
2019-04-28T13:15:28.733Z,43.70
2019-04-28T13:17:54.665Z,43.70
2019-04-28T13:20:20.633Z,43.60
2019-04-28T13:22:46.620Z,43.60
2019-04-28T13:25:12.608Z,43.50
2019-04-28T13:27:38.641Z,43.50
2019-04-28T13:30:04.703Z,43.60
2019-04-28T13:32:33.545Z,43.40
2019-04-28T13:34:59.506Z,43.40
2019-04-28T13:37:25.455Z,43.40
2019-04-28T13:39:56.216Z,43.20
2019-04-28T13:42:22.916Z,43.20
2019-04-28T13:44:54.055Z,43.30
2019-04-28T13:47:20.036Z,43.30
2019-04-28T13:49:47.991Z,43.30
2019-04-28T13:52:15.895Z,43.20
2019-04-28T13:54:42.138Z,43.20
2019-04-28T13:57:08.191Z,43.20
2019-04-28T13:59:34.275Z,43.20
2019-04-28T14:02:18.786Z,43.10
2019-04-28T14:04:46.713Z,43.10
2019-04-28T14:07:12.795Z,43.00
2019-04-28T14:09:38.875Z,42.90
2019-04-28T14:12:04.933Z,42.90
2019-04-28T14:14:30.950Z,42.90
2019-04-28T14:16:56.981Z,42.90
2019-04-28T14:19:23.055Z,42.80
2019-04-28T14:21:49.179Z,42.80
2019-04-28T14:24:15.227Z,42.80
2019-04-28T14:26:41.335Z,42.80
2019-04-28T14:29:07.436Z,42.80
2019-04-28T14:31:33.401Z,42.70
2019-04-28T14:33:59.375Z,42.70
2019-04-28T14:36:25.387Z,42.60
2019-04-28T14:38:51.454Z,42.70
2019-04-28T14:41:17.515Z,42.60
2019-04-28T14:43:43.549Z,42.60
2019-04-28T14:46:09.514Z,42.50
2019-04-28T14:48:35.565Z,42.50
2019-04-28T14:51:01.654Z,42.60
2019-04-28T14:53:27.687Z,42.50
2019-04-28T14:55:53.672Z,42.50
2019-04-28T14:58:19.735Z,42.50
2019-04-28T15:00:50.452Z,42.40
2019-04-28T15:03:18.000Z,42.40
2019-04-28T15:05:48.802Z,42.40
2019-04-28T15:08:28.784Z,42.40
2019-04-28T15:10:59.411Z,42.40
2019-04-28T15:13:26.088Z,42.40
2019-04-28T15:15:52.134Z,42.30
2019-04-28T15:18:18.217Z,42.30
2019-04-28T15:20:44.207Z,42.40
2019-04-28T15:23:10.262Z,42.30
2019-04-28T15:25:36.240Z,42.20
2019-04-28T15:28:02.227Z,42.30
2019-04-28T15:30:28.262Z,42.30
2019-04-28T15:32:54.231Z,42.20
2019-04-28T15:35:20.280Z,42.20
2019-04-28T15:37:46.235Z,42.20
2019-04-28T15:40:12.283Z,42.20
2019-04-28T15:42:38.253Z,42.20
2019-04-28T15:45:04.329Z,42.20
2019-04-28T15:47:30.301Z,42.20
2019-04-28T15:49:56.251Z,42.10
2019-04-28T15:52:22.940Z,42.20
2019-04-28T15:54:50.803Z,42.20
2019-04-28T15:57:16.753Z,42.20
2019-04-28T15:59:42.709Z,42.20
2019-04-28T16:02:10.406Z,42.20
2019-04-28T16:04:36.649Z,42.30
2019-04-28T16:07:02.638Z,42.20
2019-04-28T16:09:28.724Z,42.20
2019-04-28T16:11:54.683Z,42.20
2019-04-28T16:14:20.629Z,42.20
2019-04-28T16:16:46.625Z,42.20
2019-04-28T16:19:12.688Z,42.20
2019-04-28T16:21:38.782Z,42.20
2019-04-28T16:24:04.840Z,42.20
2019-04-28T16:26:30.815Z,42.20
2019-04-28T16:28:56.852Z,42.10
2019-04-28T16:31:22.820Z,42.20
2019-04-28T16:33:48.758Z,42.10
2019-04-28T16:36:14.734Z,42.10
2019-04-28T16:38:40.672Z,42.00
2019-04-28T16:41:06.948Z,42.10
2019-04-28T16:43:33.223Z,42.20
2019-04-28T16:45:59.195Z,42.10
2019-04-28T16:48:25.170Z,42.10
2019-04-28T16:50:51.130Z,42.20
2019-04-28T16:53:17.497Z,42.10
2019-04-28T16:55:45.547Z,42.10
2019-04-28T16:58:19.534Z,42.10
2019-04-28T17:00:56.454Z,42.10
2019-04-28T17:03:22.607Z,42.20
2019-04-28T17:05:48.552Z,42.30
2019-04-28T17:08:14.531Z,42.40
2019-04-28T17:10:40.606Z,43.00
2019-04-28T17:13:06.670Z,43.40
2019-04-28T17:15:32.642Z,44.50
2019-04-28T17:17:58.703Z,44.60
2019-04-28T17:20:24.767Z,43.90
2019-04-28T17:22:50.745Z,44.20
2019-04-28T17:25:16.808Z,43.60
2019-04-28T17:27:42.784Z,43.90
2019-04-28T17:30:09.747Z,43.90
2019-04-28T17:32:35.829Z,44.00
2019-04-28T17:35:01.766Z,44.10
2019-04-28T17:37:27.725Z,44.10
2019-04-28T17:39:53.776Z,44.00
2019-04-28T17:42:19.701Z,43.90
2019-04-28T17:44:45.688Z,43.90
2019-04-28T17:47:13.446Z,43.70
2019-04-28T17:49:39.422Z,43.70
2019-04-28T17:52:07.438Z,43.80
2019-04-28T17:54:33.463Z,43.70
2019-04-28T17:56:59.419Z,43.70
2019-04-28T17:59:25.606Z,43.50
2019-04-28T18:02:11.282Z,43.60
2019-04-28T18:04:39.161Z,43.50
2019-04-28T18:07:07.114Z,43.70
2019-04-28T18:09:33.065Z,43.80
2019-04-28T18:11:59.076Z,43.90
2019-04-28T18:14:25.146Z,44.00
2019-04-28T18:16:53.032Z,44.10
2019-04-28T18:19:20.905Z,44.40
2019-04-28T18:21:46.883Z,44.20
2019-04-28T18:24:12.935Z,44.30
2019-04-28T18:26:38.902Z,44.20
2019-04-28T18:29:05.109Z,43.80
2019-04-28T18:31:41.763Z,43.50
2019-04-28T18:34:26.218Z,43.20
2019-04-28T18:37:10.255Z,43.10
2019-04-28T18:39:54.373Z,43.00
2019-04-28T18:42:23.549Z,43.20
2019-04-28T18:44:49.505Z,43.20
2019-04-28T18:47:15.509Z,43.20
2019-04-28T18:49:41.557Z,43.20
2019-04-28T18:52:07.629Z,43.30
2019-04-28T18:54:33.589Z,43.70
2019-04-28T18:56:59.543Z,43.40
2019-04-28T18:59:25.489Z,43.50
2019-04-28T19:01:53.371Z,43.60
2019-04-28T19:04:19.515Z,43.60
2019-04-28T19:06:45.464Z,43.80
2019-04-28T19:09:16.082Z,43.80
2019-04-28T19:11:44.019Z,43.80
2019-04-28T19:14:21.127Z,43.80
2019-04-28T19:16:49.085Z,43.80
2019-04-28T19:19:16.943Z,43.70
2019-04-28T19:21:44.795Z,44.40
2019-04-28T19:24:10.798Z,43.70
2019-04-28T19:26:36.805Z,43.70
2019-04-28T19:29:02.851Z,43.60
2019-04-28T19:31:28.895Z,43.60
2019-04-28T19:33:54.867Z,43.50
2019-04-28T19:36:20.840Z,43.40
2019-04-28T19:38:46.798Z,43.50
2019-04-28T19:41:12.772Z,43.60
2019-04-28T19:43:38.725Z,43.60
2019-04-28T19:46:06.660Z,43.60
2019-04-28T19:48:32.687Z,43.60
2019-04-28T19:50:58.668Z,43.60
2019-04-28T19:53:24.644Z,43.50
2019-04-28T19:55:55.265Z,43.50
2019-04-28T19:58:31.995Z,43.40
2019-04-28T20:00:59.964Z,43.40
2019-04-28T20:03:25.910Z,43.40
2019-04-28T20:05:51.848Z,43.30
2019-04-28T20:08:17.831Z,43.40
2019-04-28T20:10:43.771Z,43.30
2019-04-28T20:13:09.749Z,43.40
2019-04-28T20:15:35.698Z,43.30
2019-04-28T20:18:01.673Z,43.30
2019-04-28T20:20:27.622Z,43.20
2019-04-28T20:22:53.597Z,43.20
2019-04-28T20:25:19.576Z,43.30
2019-04-28T20:27:45.600Z,43.30
2019-04-28T20:30:11.657Z,43.30
2019-04-28T20:32:45.541Z,43.30
2019-04-28T20:35:11.615Z,43.20
2019-04-28T20:37:56.035Z,43.10
2019-04-28T20:40:33.082Z,43.10
2019-04-28T20:43:07.042Z,43.20
2019-04-28T20:45:33.004Z,43.00
2019-04-28T20:47:58.988Z,43.10
2019-04-28T20:50:24.946Z,43.10
2019-04-28T20:52:50.909Z,43.00
2019-04-28T20:55:16.863Z,43.00
2019-04-28T20:57:42.830Z,43.00
2019-04-28T21:00:08.786Z,43.00
2019-04-28T21:02:34.739Z,43.00
2019-04-28T21:05:00.684Z,43.10
2019-04-28T21:07:26.654Z,43.00
2019-04-28T21:09:52.702Z,43.00
2019-04-28T21:12:18.666Z,43.10
2019-04-28T21:14:44.667Z,42.90
2019-04-28T21:17:10.668Z,43.00
2019-04-28T21:19:36.612Z,43.00
2019-04-28T21:22:06.738Z,43.30
2019-04-28T21:24:32.700Z,43.70
2019-04-28T21:26:58.754Z,43.80
2019-04-28T21:29:24.709Z,44.20
2019-04-28T21:31:50.686Z,44.10
2019-04-28T21:34:16.622Z,45.20
2019-04-28T21:36:42.607Z,44.80
2019-04-28T21:39:08.974Z,44.80
2019-04-28T21:41:35.012Z,44.70
2019-04-28T21:44:02.896Z,44.60
2019-04-28T21:46:30.840Z,44.30
2019-04-28T21:49:01.538Z,44.30
2019-04-28T21:51:27.495Z,44.50
2019-04-28T21:53:53.559Z,44.20
2019-04-28T21:56:19.615Z,44.20
2019-04-28T21:58:45.575Z,44.20
2019-04-28T22:01:11.817Z,44.10
2019-04-28T22:03:37.802Z,44.20
2019-04-28T22:06:03.854Z,44.20
2019-04-28T22:08:29.841Z,44.10
2019-04-28T22:10:55.912Z,44.00
2019-04-28T22:13:22.055Z,44.20
2019-04-28T22:15:48.002Z,44.10
2019-04-28T22:18:13.971Z,44.10
2019-04-28T22:20:39.927Z,44.10
2019-04-28T22:23:18.335Z,44.00
2019-04-28T22:25:38.243Z,44.00
2019-04-28T22:28:04.302Z,44.00
2019-04-28T22:30:30.277Z,44.00
2019-04-28T22:32:56.217Z,44.00
2019-04-28T22:35:22.155Z,43.90
2019-04-28T22:37:48.161Z,44.00
2019-04-28T22:40:14.217Z,44.00
2019-04-28T22:42:40.166Z,44.00
2019-04-28T22:45:06.396Z,44.00
2019-04-28T22:47:32.361Z,43.90
2019-04-28T22:49:58.342Z,44.50
2019-04-28T22:52:25.659Z,43.90
2019-04-28T22:54:53.588Z,43.90
2019-04-28T22:57:21.577Z,43.80
2019-04-28T22:59:49.481Z,43.80
2019-04-28T23:02:17.447Z,43.80
2019-04-28T23:04:57.328Z,43.80
2019-04-28T23:07:23.293Z,43.80
2019-04-28T23:09:49.265Z,43.80
2019-04-28T23:12:16.005Z,43.80
2019-04-28T23:14:42.077Z,43.70
2019-04-28T23:17:10.036Z,43.80
2019-04-28T23:19:37.885Z,43.70
2019-04-28T23:22:20.613Z,43.80
2019-04-28T23:24:46.617Z,43.70
2019-04-28T23:27:12.699Z,43.70
2019-04-28T23:29:38.779Z,43.70
2019-04-28T23:32:04.957Z,43.70
2019-04-28T23:34:30.990Z,43.70
2019-04-28T23:36:56.982Z,43.70
2019-04-28T23:39:22.962Z,43.70
2019-04-28T23:42:07.377Z,43.60
2019-04-28T23:44:35.322Z,43.70
2019-04-28T23:47:01.893Z,43.60
2019-04-28T23:49:27.911Z,43.60
2019-04-28T23:52:14.888Z,43.70
2019-04-28T23:54:40.499Z,43.70
2019-04-28T23:57:07.392Z,43.70
2019-04-28T23:59:33.532Z,43.70
